createdAt,value
2022-07-29T00:01:19.126Z,100757.66
2022-07-29T00:03:46.839Z,100749.38
2022-07-29T00:06:14.262Z,100746.16
2022-07-29T00:08:41.239Z,100743.44
2022-07-29T00:11:08.280Z,100741.75
2022-07-29T00:13:35.401Z,100744.56
2022-07-29T00:16:04.435Z,100747.19
2022-07-29T00:18:32.949Z,100746.84
2022-07-29T00:21:00.408Z,100755.69
2022-07-29T00:23:27.555Z,100744.84
2022-07-29T00:25:54.615Z,100752.41
2022-07-29T00:28:21.592Z,100754.88
2022-07-29T00:30:48.672Z,100754.59
2022-07-29T00:33:15.758Z,100754.03
2022-07-29T00:35:45.918Z,100754.81
2022-07-29T00:38:17.523Z,100754.28
2022-07-29T00:40:45.495Z,100755.63
2022-07-29T00:43:14.754Z,100751.66
2022-07-29T00:45:45.218Z,100746.31
2022-07-29T00:48:12.308Z,100744.22
2022-07-29T00:50:40.152Z,100748.31
2022-07-29T00:53:08.566Z,100750.13
2022-07-29T00:55:36.088Z,100751.00
2022-07-29T00:58:03.810Z,100746.16
2022-07-29T01:00:31.426Z,100753.56
2022-07-29T01:02:58.927Z,100754.66
2022-07-29T01:05:49.860Z,100755.03
2022-07-29T01:08:17.098Z,100751.91
2022-07-29T01:10:46.520Z,100752.28
2022-07-29T01:13:14.846Z,100751.25
2022-07-29T01:16:08.572Z,100740.84
2022-07-29T01:18:39.202Z,100731.63
2022-07-29T01:21:35.066Z,100744.59
2022-07-29T01:24:10.917Z,100739.88
2022-07-29T01:26:48.129Z,100733.91
2022-07-29T01:29:59.915Z,100739.41
2022-07-29T01:32:34.234Z,100737.63
2022-07-29T01:35:37.610Z,100742.06
2022-07-29T01:38:26.313Z,100745.22
2022-07-29T01:41:00.083Z,100743.69
2022-07-29T01:43:41.881Z,100745.56
2022-07-29T01:46:15.683Z,100732.31
2022-07-29T01:48:58.843Z,100734.94
2022-07-29T01:51:32.907Z,100730.28
2022-07-29T01:54:11.998Z,100724.38
2022-07-29T01:56:40.694Z,100732.88
2022-07-29T01:59:10.610Z,100723.56
2022-07-29T02:01:40.369Z,100722.09
2022-07-29T02:04:10.942Z,100723.56
2022-07-29T02:06:41.325Z,100730.78
2022-07-29T02:09:09.601Z,100726.28
2022-07-29T02:11:38.888Z,100724.91
2022-07-29T02:14:08.244Z,100725.41
2022-07-29T02:16:38.707Z,100725.59
2022-07-29T02:19:09.796Z,100723.78
2022-07-29T02:21:37.099Z,100718.13
2022-07-29T02:24:06.158Z,100714.16
2022-07-29T02:26:34.775Z,100710.59
2022-07-29T02:29:03.344Z,100715.31
2022-07-29T02:31:34.809Z,100719.13
2022-07-29T02:34:04.652Z,100724.19
2022-07-29T02:36:33.867Z,100717.69
2022-07-29T02:39:03.420Z,100719.25
2022-07-29T02:41:51.631Z,100727.53
2022-07-29T02:44:21.846Z,100728.13
2022-07-29T02:47:25.788Z,100738.84
2022-07-29T02:50:02.505Z,100738.81
2022-07-29T02:52:41.089Z,100735.34
2022-07-29T02:55:37.578Z,100730.88
2022-07-29T02:58:13.787Z,100727.66
2022-07-29T03:00:42.230Z,100734.03
2022-07-29T03:03:13.797Z,100730.16
2022-07-29T03:05:41.371Z,100733.88
2022-07-29T03:08:11.553Z,100734.78
2022-07-29T03:10:45.160Z,100738.16
2022-07-29T03:13:14.314Z,100744.75
2022-07-29T03:15:44.761Z,100745.19
2022-07-29T03:18:12.343Z,100753.91
2022-07-29T03:20:40.093Z,100749.06
2022-07-29T03:23:07.656Z,100760.38
2022-07-29T03:25:34.702Z,100758.50
2022-07-29T03:28:01.739Z,100758.50
2022-07-29T03:30:31.686Z,100761.06
2022-07-29T03:32:59.220Z,100759.59
2022-07-29T03:35:26.276Z,100760.97
2022-07-29T03:37:53.251Z,100759.66
2022-07-29T03:40:36.672Z,100761.63
2022-07-29T03:43:05.004Z,100773.84
2022-07-29T03:45:33.842Z,100769.84
2022-07-29T03:48:06.713Z,100774.91
2022-07-29T03:50:34.904Z,100777.69
2022-07-29T03:53:02.565Z,100782.25
2022-07-29T03:55:33.509Z,100779.22
2022-07-29T03:58:02.775Z,100778.75
2022-07-29T04:00:31.138Z,100776.47
2022-07-29T04:02:58.953Z,100772.81
2022-07-29T04:05:25.936Z,100770.06
2022-07-29T04:07:52.864Z,100769.44
2022-07-29T04:10:26.886Z,100774.22
2022-07-29T04:12:59.089Z,100765.63
2022-07-29T04:15:26.085Z,100771.97
2022-07-29T04:17:57.885Z,100772.28
2022-07-29T04:20:24.826Z,100772.41
2022-07-29T04:22:52.127Z,100773.66
2022-07-29T04:25:19.076Z,100767.53
2022-07-29T04:28:04.388Z,100768.91
2022-07-29T04:30:32.869Z,100766.44
2022-07-29T04:33:01.901Z,100769.03
2022-07-29T04:35:30.140Z,100771.72
2022-07-29T04:37:57.453Z,100770.53
2022-07-29T04:40:24.378Z,100768.97
2022-07-29T04:42:51.373Z,100774.16
2022-07-29T04:45:22.282Z,100763.09
2022-07-29T04:47:49.949Z,100770.34
2022-07-29T04:50:16.930Z,100769.06
2022-07-29T04:52:44.894Z,100769.19
2022-07-29T04:55:11.944Z,100766.19
2022-07-29T04:57:38.869Z,100762.72
2022-07-29T05:00:07.215Z,100762.13
2022-07-29T05:02:34.233Z,100753.47
2022-07-29T05:05:01.354Z,100756.84
2022-07-29T05:07:28.280Z,100764.31
2022-07-29T05:09:57.950Z,100760.72
2022-07-29T05:12:25.692Z,100756.69
2022-07-29T05:14:52.983Z,100760.38
2022-07-29T05:17:20.144Z,100754.31
2022-07-29T05:19:47.339Z,100759.16
2022-07-29T05:22:14.335Z,100758.00
2022-07-29T05:24:41.852Z,100764.28
2022-07-29T05:27:08.764Z,100754.97
2022-07-29T05:29:44.221Z,100754.81
2022-07-29T05:32:12.023Z,100753.63
2022-07-29T05:34:50.845Z,100754.84
2022-07-29T05:37:19.851Z,100751.59
2022-07-29T05:39:48.770Z,100760.16
2022-07-29T05:42:16.250Z,100757.28
2022-07-29T05:44:43.277Z,100756.38
2022-07-29T05:47:10.213Z,100761.84
2022-07-29T05:49:37.234Z,100763.28
2022-07-29T05:52:04.662Z,100761.63
2022-07-29T05:54:31.771Z,100760.16
2022-07-29T05:56:58.764Z,100761.88
2022-07-29T05:59:30.142Z,100763.25
2022-07-29T06:01:58.440Z,100775.94
2022-07-29T06:04:25.786Z,100768.94
2022-07-29T06:06:52.831Z,100763.94
2022-07-29T06:09:20.094Z,100769.59
2022-07-29T06:11:47.130Z,100764.16
2022-07-29T06:14:14.771Z,100768.41
2022-07-29T06:16:42.351Z,100766.41
2022-07-29T06:19:09.612Z,100767.44
2022-07-29T06:21:38.665Z,100766.88
2022-07-29T06:24:09.164Z,100770.69
2022-07-29T06:26:39.699Z,100761.13
2022-07-29T06:29:07.897Z,100762.69
2022-07-29T06:31:35.455Z,100756.13
2022-07-29T06:34:02.374Z,100763.28
2022-07-29T06:36:31.040Z,100760.16
2022-07-29T06:38:58.067Z,100755.13
2022-07-29T06:41:25.023Z,100759.72
2022-07-29T06:43:55.211Z,100764.00
2022-07-29T06:46:24.236Z,100765.16
2022-07-29T06:48:53.078Z,100765.31
2022-07-29T06:51:22.786Z,100753.50
2022-07-29T06:53:59.500Z,100747.78
2022-07-29T06:56:39.524Z,100750.34
2022-07-29T06:59:10.565Z,100747.66
2022-07-29T07:01:38.779Z,100747.53
2022-07-29T07:04:05.883Z,100749.59
2022-07-29T07:06:33.668Z,100750.44
2022-07-29T07:09:00.639Z,100743.41
2022-07-29T07:11:27.986Z,100744.59
2022-07-29T07:13:59.267Z,100752.84
2022-07-29T07:16:29.587Z,100743.25
2022-07-29T07:18:56.515Z,100752.03
2022-07-29T07:21:24.663Z,100747.25
2022-07-29T07:23:51.620Z,100752.38
2022-07-29T07:26:18.540Z,100758.00
2022-07-29T07:28:45.521Z,100761.28
2022-07-29T07:31:13.038Z,100760.25
2022-07-29T07:33:40.022Z,100749.81
2022-07-29T07:36:07.084Z,100752.38
2022-07-29T07:38:34.087Z,100760.16
2022-07-29T07:41:02.198Z,100754.94
2022-07-29T07:43:29.310Z,100767.69
2022-07-29T07:45:56.316Z,100766.59
2022-07-29T07:48:23.279Z,100766.69
2022-07-29T07:50:50.553Z,100772.13
2022-07-29T07:53:17.811Z,100770.19
2022-07-29T07:56:09.377Z,100758.47
2022-07-29T07:58:33.877Z,100767.53
2022-07-29T08:01:00.818Z,100769.75
2022-07-29T08:03:27.805Z,100762.69
2022-07-29T08:05:55.428Z,100770.84
2022-07-29T08:08:22.442Z,100764.31
2022-07-29T08:10:57.145Z,100770.94
2022-07-29T08:13:31.506Z,100773.88
2022-07-29T08:16:02.783Z,100770.44
2022-07-29T08:18:31.339Z,100768.19
2022-07-29T08:20:59.226Z,100772.75
2022-07-29T08:23:32.828Z,100781.03
2022-07-29T08:26:14.849Z,100769.75
2022-07-29T08:28:45.869Z,100765.25
2022-07-29T08:31:14.236Z,100768.25
2022-07-29T08:33:41.252Z,100764.69
2022-07-29T08:36:08.445Z,100765.38
2022-07-29T08:38:36.014Z,100765.56
2022-07-29T08:41:03.024Z,100765.06
2022-07-29T08:43:30.285Z,100766.97
2022-07-29T08:45:57.290Z,100762.13
2022-07-29T08:48:25.915Z,100754.97
2022-07-29T08:50:57.937Z,100754.59
2022-07-29T08:53:27.924Z,100755.13
2022-07-29T08:55:56.075Z,100752.38
2022-07-29T08:58:24.857Z,100748.53
2022-07-29T09:00:56.975Z,100738.66
2022-07-29T09:03:28.518Z,100737.94
2022-07-29T09:05:55.694Z,100745.81
2022-07-29T09:08:24.306Z,100744.50
2022-07-29T09:10:52.340Z,100741.66
2022-07-29T09:13:19.368Z,100736.50
2022-07-29T09:15:46.631Z,100733.91
2022-07-29T09:18:19.604Z,100734.63
2022-07-29T09:21:16.071Z,100738.66
2022-07-29T09:24:00.301Z,100727.75
2022-07-29T09:26:37.603Z,100722.03
2022-07-29T09:29:17.771Z,100718.16
2022-07-29T09:31:50.033Z,100730.19
2022-07-29T09:34:29.603Z,100725.47
2022-07-29T09:36:57.032Z,100721.19
2022-07-29T09:39:36.107Z,100719.13
2022-07-29T09:42:07.748Z,100725.03
2022-07-29T09:44:50.245Z,100716.53
2022-07-29T09:47:19.165Z,100719.19
2022-07-29T09:49:54.029Z,100724.34
2022-07-29T09:52:21.645Z,100729.78
2022-07-29T09:54:48.847Z,100714.84
2022-07-29T09:57:31.115Z,100721.47
2022-07-29T10:00:11.833Z,100722.31
2022-07-29T10:02:41.103Z,100726.53
2022-07-29T10:05:21.236Z,100716.44
2022-07-29T10:07:51.883Z,100723.41
2022-07-29T10:10:29.217Z,100717.16
2022-07-29T10:13:06.419Z,100715.47
2022-07-29T10:15:42.001Z,100727.91
2022-07-29T10:18:10.483Z,100728.03
2022-07-29T10:20:38.107Z,100712.25
2022-07-29T10:23:05.886Z,100722.59
2022-07-29T10:25:33.128Z,100720.31
2022-07-29T10:28:00.165Z,100720.03
2022-07-29T10:30:27.860Z,100718.88
2022-07-29T10:33:03.657Z,100721.03
2022-07-29T10:35:55.175Z,100709.28
2022-07-29T10:38:33.930Z,100706.13
2022-07-29T10:41:29.032Z,100706.81
2022-07-29T10:44:23.207Z,100713.09
2022-07-29T10:46:56.267Z,100717.72
2022-07-29T10:49:28.085Z,100723.75
2022-07-29T10:52:00.998Z,100718.88
2022-07-29T10:54:52.610Z,100714.03
2022-07-29T10:57:53.803Z,100712.84
2022-07-29T11:00:17.018Z,100715.72
2022-07-29T11:02:47.126Z,100713.16
2022-07-29T11:05:21.872Z,100717.72
2022-07-29T11:08:21.101Z,100714.03
2022-07-29T11:11:15.871Z,100716.25
2022-07-29T11:13:44.455Z,100717.66
2022-07-29T11:16:11.460Z,100701.22
2022-07-29T11:19:14.225Z,100714.06
2022-07-29T11:21:55.127Z,100706.75
2022-07-29T11:24:34.966Z,100706.09
2022-07-29T11:27:18.381Z,100707.94
2022-07-29T11:29:58.709Z,100705.13
2022-07-29T11:32:38.888Z,100702.38
2022-07-29T11:35:17.392Z,100695.94
2022-07-29T11:37:52.780Z,100693.34
2022-07-29T11:40:25.112Z,100705.28
2022-07-29T11:42:52.811Z,100688.19
2022-07-29T11:45:43.140Z,100696.84
2022-07-29T11:48:28.540Z,100677.59
2022-07-29T11:50:58.503Z,100685.59
2022-07-29T11:53:26.097Z,100695.59
2022-07-29T11:55:58.185Z,100682.75
2022-07-29T11:58:26.358Z,100679.28
2022-07-29T12:00:55.330Z,100673.50
2022-07-29T12:03:33.490Z,100680.34
2022-07-29T12:06:24.139Z,100680.34
2022-07-29T12:08:51.187Z,100682.78
2022-07-29T12:11:20.914Z,100666.16
2022-07-29T12:13:50.050Z,100664.75
2022-07-29T12:16:26.134Z,100669.84
2022-07-29T12:19:02.360Z,100656.91
2022-07-29T12:21:53.937Z,100656.97
2022-07-29T12:24:27.443Z,100666.16
2022-07-29T12:26:57.122Z,100651.25
2022-07-29T12:29:34.988Z,100638.38
2022-07-29T12:32:04.453Z,100654.13
2022-07-29T12:34:32.359Z,100657.53
2022-07-29T12:36:59.580Z,100652.91
2022-07-29T12:39:29.045Z,100643.22
2022-07-29T12:42:04.880Z,100642.06
2022-07-29T12:44:51.565Z,100634.38
2022-07-29T12:47:19.706Z,100636.81
2022-07-29T12:49:47.870Z,100637.16
2022-07-29T12:52:26.866Z,100635.63
2022-07-29T12:54:53.882Z,100640.53
2022-07-29T12:57:20.910Z,100626.34
2022-07-29T13:00:00.948Z,100640.78
2022-07-29T13:02:28.160Z,100636.34
2022-07-29T13:05:00.267Z,100641.63
2022-07-29T13:07:55.495Z,100628.59
2022-07-29T13:10:24.645Z,100629.50
2022-07-29T13:13:09.190Z,100632.16
2022-07-29T13:15:41.238Z,100634.53
2022-07-29T13:18:31.440Z,100634.03
2022-07-29T13:20:58.852Z,100642.13
2022-07-29T13:23:25.887Z,100638.34
2022-07-29T13:25:52.871Z,100635.50
2022-07-29T13:28:22.571Z,100632.63
2022-07-29T13:30:49.572Z,100637.78
2022-07-29T13:33:16.534Z,100631.66
2022-07-29T13:35:43.583Z,100628.63
2022-07-29T13:38:10.542Z,100632.75
2022-07-29T13:40:37.418Z,100634.34
2022-07-29T13:43:05.022Z,100635.22
2022-07-29T13:45:32.085Z,100633.78
2022-07-29T13:47:58.973Z,100633.47
2022-07-29T13:50:25.928Z,100635.75
2022-07-29T13:52:53.069Z,100624.16
2022-07-29T13:55:20.709Z,100620.66
2022-07-29T13:57:47.960Z,100622.31
2022-07-29T14:00:16.236Z,100632.53
2022-07-29T14:02:44.022Z,100643.06
2022-07-29T14:05:11.325Z,100635.66
2022-07-29T14:07:42.094Z,100627.81
2022-07-29T14:10:09.578Z,100641.69
2022-07-29T14:12:36.796Z,100636.44
2022-07-29T14:15:04.089Z,100634.28
2022-07-29T14:17:31.135Z,100632.84
2022-07-29T14:19:58.059Z,100636.28
2022-07-29T14:22:26.281Z,100643.72
2022-07-29T14:24:53.616Z,100647.00
2022-07-29T14:27:20.654Z,100640.63
2022-07-29T14:30:05.780Z,100638.72
2022-07-29T14:32:32.679Z,100639.97
2022-07-29T14:34:59.568Z,100640.34
2022-07-29T14:37:26.481Z,100638.91
2022-07-29T14:39:53.483Z,100643.81
2022-07-29T14:42:20.912Z,100647.38
2022-07-29T14:44:48.914Z,100636.75
2022-07-29T14:47:16.226Z,100642.34
2022-07-29T14:49:43.130Z,100638.31
2022-07-29T14:52:09.998Z,100640.19
2022-07-29T14:54:36.929Z,100638.69
2022-07-29T14:57:03.844Z,100633.16
2022-07-29T14:59:30.870Z,100636.13
2022-07-29T15:01:58.275Z,100628.91
2022-07-29T15:04:25.591Z,100629.84
2022-07-29T15:06:52.998Z,100622.63
2022-07-29T15:09:19.927Z,100623.34
2022-07-29T15:11:46.879Z,100618.69
2022-07-29T15:14:13.820Z,100621.41
2022-07-29T15:16:43.714Z,100623.03
2022-07-29T15:19:11.109Z,100621.91
2022-07-29T15:21:41.427Z,100629.09
2022-07-29T15:24:15.448Z,100625.56
2022-07-29T15:26:43.562Z,100617.53
2022-07-29T15:29:10.741Z,100622.13
2022-07-29T15:31:37.818Z,100612.66
2022-07-29T15:34:06.258Z,100620.28
2022-07-29T15:39:21.878Z,100611.19
2022-07-29T15:41:49.210Z,100622.53
2022-07-29T15:44:16.162Z,100621.28
2022-07-29T15:47:02.047Z,100615.75
2022-07-29T15:49:47.763Z,100614.88
2022-07-29T15:52:25.886Z,100616.75
2022-07-29T15:54:56.190Z,100620.78
2022-07-29T15:57:23.921Z,100616.84
2022-07-29T15:59:51.129Z,100615.25
2022-07-29T16:02:18.154Z,100620.28
2022-07-29T16:04:45.060Z,100614.25
2022-07-29T16:07:12.177Z,100611.66
2022-07-29T16:09:41.782Z,100618.53
2022-07-29T16:12:14.612Z,100620.53
2022-07-29T16:14:42.278Z,100626.81
2022-07-29T16:17:09.340Z,100631.06
2022-07-29T16:19:41.273Z,100620.84
2022-07-29T16:22:08.372Z,100634.69
2022-07-29T16:24:35.414Z,100635.53
2022-07-29T16:27:02.418Z,100624.84
2022-07-29T16:29:29.358Z,100633.56
2022-07-29T16:31:56.529Z,100631.88
2022-07-29T16:34:23.425Z,100635.41
2022-07-29T16:36:50.360Z,100637.19
2022-07-29T16:39:17.456Z,100633.72
2022-07-29T16:41:44.353Z,100637.81
2022-07-29T16:44:11.238Z,100632.38
2022-07-29T16:46:40.859Z,100631.94
2022-07-29T16:49:08.581Z,100630.75
2022-07-29T16:51:35.604Z,100634.41
2022-07-29T16:54:02.561Z,100640.16
2022-07-29T16:56:29.514Z,100638.41
2022-07-29T16:58:58.390Z,100643.72
2022-07-29T17:01:25.413Z,100648.69
2022-07-29T17:04:07.824Z,100649.66
2022-07-29T17:06:36.283Z,100651.94
2022-07-29T17:09:05.384Z,100659.31
2022-07-29T17:11:53.171Z,100653.94
2022-07-29T17:14:27.467Z,100654.22
2022-07-29T17:17:02.333Z,100658.97
2022-07-29T17:19:35.598Z,100652.38
2022-07-29T17:22:18.708Z,100660.69
2022-07-29T17:24:48.903Z,100657.91
2022-07-29T17:27:16.295Z,100654.34
2022-07-29T17:29:43.557Z,100659.75
2022-07-29T17:32:11.486Z,100662.56
2022-07-29T17:34:40.180Z,100664.38
2022-07-29T17:37:09.561Z,100667.47
2022-07-29T17:39:37.686Z,100670.53
2022-07-29T17:42:05.457Z,100666.34
2022-07-29T17:44:36.090Z,100669.47
2022-07-29T17:47:04.443Z,100669.13
2022-07-29T17:49:31.665Z,100671.81
2022-07-29T17:52:00.982Z,100673.78
2022-07-29T17:54:29.026Z,100670.31
2022-07-29T17:56:56.142Z,100663.50
2022-07-29T17:59:23.414Z,100669.00
2022-07-29T18:01:50.446Z,100678.72
2022-07-29T18:04:21.071Z,100671.00
2022-07-29T18:06:48.064Z,100669.44
2022-07-29T18:09:14.964Z,100672.69
2022-07-29T18:11:44.397Z,100682.22
2022-07-29T18:14:12.755Z,100669.91
2022-07-29T18:16:39.721Z,100673.13
2022-07-29T18:19:06.958Z,100675.84
2022-07-29T18:21:42.710Z,100678.97
2022-07-29T18:24:18.357Z,100669.91
2022-07-29T18:26:45.377Z,100680.91
2022-07-29T18:29:12.483Z,100688.69
2022-07-29T18:31:41.281Z,100681.66
2022-07-29T18:34:08.351Z,100685.66
2022-07-29T18:36:35.262Z,100687.28
2022-07-29T18:39:02.291Z,100692.78
2022-07-29T18:41:29.337Z,100693.19
2022-07-29T18:43:56.418Z,100700.56
2022-07-29T18:46:23.339Z,100704.44
2022-07-29T18:48:52.603Z,100701.41
2022-07-29T18:51:19.572Z,100705.09
2022-07-29T18:53:46.532Z,100708.13
2022-07-29T18:56:13.718Z,100711.66
2022-07-29T18:58:40.749Z,100712.66
2022-07-29T19:01:07.644Z,100718.16
2022-07-29T19:03:34.889Z,100707.44
2022-07-29T19:06:01.893Z,100710.53
2022-07-29T19:08:28.913Z,100709.41
2022-07-29T19:10:56.191Z,100706.69
2022-07-29T19:13:23.419Z,100720.66
2022-07-29T19:15:50.367Z,100720.44
2022-07-29T19:18:17.302Z,100719.34
2022-07-29T19:20:44.213Z,100717.09
2022-07-29T19:23:11.125Z,100710.94
2022-07-29T19:25:48.213Z,100716.63
2022-07-29T19:28:21.160Z,100717.84
2022-07-29T19:30:48.245Z,100705.09
2022-07-29T19:33:17.706Z,100701.41
2022-07-29T19:35:45.879Z,100702.28
2022-07-29T19:38:13.328Z,100702.09
2022-07-29T19:40:40.620Z,100696.47
2022-07-29T19:43:50.790Z,100692.56
2022-07-29T19:45:54.929Z,100697.75
2022-07-29T19:48:21.840Z,100702.06
2022-07-29T19:50:48.934Z,100696.66
2022-07-29T19:53:15.841Z,100696.56
2022-07-29T19:55:42.879Z,100698.72
2022-07-29T19:58:09.795Z,100689.97
2022-07-29T20:00:36.880Z,100693.66
2022-07-29T20:03:07.087Z,100696.78
2022-07-29T20:05:34.179Z,100695.28
2022-07-29T20:08:01.148Z,100703.81
2022-07-29T20:10:28.489Z,100703.16
2022-07-29T20:12:55.533Z,100708.97
2022-07-29T20:15:22.810Z,100710.50
2022-07-29T20:17:51.856Z,100710.50
2022-07-29T20:20:23.297Z,100713.63
2022-07-29T20:22:50.226Z,100712.88
2022-07-29T20:25:17.186Z,100718.88
2022-07-29T20:27:44.083Z,100717.84
2022-07-29T20:30:14.307Z,100718.00
2022-07-29T20:32:41.951Z,100726.22
2022-07-29T20:35:13.568Z,100720.41
2022-07-29T20:37:52.519Z,100720.97
2022-07-29T20:40:25.079Z,100726.25
2022-07-29T20:42:52.402Z,100727.53
2022-07-29T20:45:20.203Z,100730.31
2022-07-29T20:47:47.198Z,100721.69
2022-07-29T20:50:14.495Z,100719.00
2022-07-29T20:52:43.409Z,100715.44
2022-07-29T20:55:10.890Z,100713.19
2022-07-29T20:57:39.472Z,100718.06
2022-07-29T21:00:08.004Z,100720.66
2022-07-29T21:02:36.802Z,100719.13
2022-07-29T21:05:04.504Z,100721.72
2022-07-29T21:07:31.498Z,100723.75
2022-07-29T21:09:58.409Z,100722.56
2022-07-29T21:12:25.378Z,100727.13
2022-07-29T21:14:52.357Z,100717.84
2022-07-29T21:17:22.410Z,100710.38
2022-07-29T21:19:55.368Z,100720.13
2022-07-29T21:22:23.557Z,100715.13
2022-07-29T21:24:50.571Z,100715.84
2022-07-29T21:27:38.446Z,100708.56
2022-07-29T21:30:07.935Z,100713.78
2022-07-29T21:32:34.941Z,100705.56
2022-07-29T21:35:01.971Z,100707.47
2022-07-29T21:37:29.057Z,100709.97
2022-07-29T21:39:56.074Z,100699.31
2022-07-29T21:42:23.103Z,100697.16
2022-07-29T21:44:51.690Z,100691.81
2022-07-29T21:47:18.678Z,100694.34
2022-07-29T21:49:46.639Z,100695.06
2022-07-29T21:52:14.194Z,100691.16
2022-07-29T21:54:41.949Z,100695.00
2022-07-29T21:57:09.445Z,100689.91
2022-07-29T21:59:36.533Z,100684.25
2022-07-29T22:02:03.801Z,100684.44
2022-07-29T22:04:31.433Z,100686.41
2022-07-29T22:06:58.956Z,100689.25
2022-07-29T22:09:26.475Z,100682.06
2022-07-29T22:11:54.286Z,100690.50
2022-07-29T22:14:22.334Z,100690.72
2022-07-29T22:16:49.360Z,100689.97
2022-07-29T22:19:16.496Z,100690.25
2022-07-29T22:21:43.809Z,100692.72
2022-07-29T22:24:11.391Z,100685.94
2022-07-29T22:26:38.846Z,100681.34
2022-07-29T22:29:06.574Z,100684.56
2022-07-29T22:31:33.982Z,100684.34
2022-07-29T22:34:00.944Z,100678.56
2022-07-29T22:36:27.840Z,100679.06
2022-07-29T22:38:54.796Z,100688.38
2022-07-29T22:41:21.726Z,100687.84
2022-07-29T22:43:48.615Z,100687.81
2022-07-29T22:46:15.818Z,100683.97
2022-07-29T22:48:42.840Z,100674.94
2022-07-29T22:51:10.108Z,100683.78
2022-07-29T22:53:37.141Z,100679.78
2022-07-29T22:56:04.557Z,100685.97
2022-07-29T22:58:31.507Z,100677.63
2022-07-29T23:00:58.738Z,100686.47
2022-07-29T23:03:25.760Z,100678.66
2022-07-29T23:05:52.860Z,100683.41
2022-07-29T23:08:20.126Z,100678.28
2022-07-29T23:10:47.687Z,100681.28
2022-07-29T23:13:14.965Z,100678.97
2022-07-29T23:15:42.232Z,100673.75
2022-07-29T23:18:09.288Z,100673.38
2022-07-29T23:20:36.465Z,100670.69
2022-07-29T23:23:03.700Z,100670.81
2022-07-29T23:25:30.674Z,100662.50
2022-07-29T23:27:57.744Z,100655.47
2022-07-29T23:30:24.925Z,100662.06
2022-07-29T23:32:52.224Z,100659.63
2022-07-29T23:35:19.233Z,100666.88
2022-07-29T23:37:46.193Z,100666.97
2022-07-29T23:40:14.735Z,100664.78
2022-07-29T23:42:42.816Z,100663.81
2022-07-29T23:45:11.415Z,100659.59
2022-07-29T23:47:38.735Z,100659.06
2022-07-29T23:50:07.623Z,100655.16
2022-07-29T23:52:35.642Z,100652.59
2022-07-29T23:55:37.431Z,100649.56
2022-07-29T23:57:50.357Z,100650.25
